sensor_id;sensor_type;location;lat;lon;timestamp;P1;durP1;ratioP1;P2;durP2;ratioP2
31746;SDS011;18319;48.974;8.462;2022-11-20T00:01:19;10.23;;;8.17;;
31746;SDS011;18319;48.974;8.462;2022-11-20T00:03:47;11.87;;;8.73;;
31746;SDS011;18319;48.974;8.462;2022-11-20T00:06:15;9.90;;;7.93;;
31746;SDS011;18319;48.974;8.462;2022-11-20T00:08:43;10.83;;;8.23;;
31746;SDS011;18319;48.974;8.462;2022-11-20T00:11:12;10.80;;;7.43;;
31746;SDS011;18319;48.974;8.462;2022-11-20T00:13:39;11.73;;;8.73;;
31746;SDS011;18319;48.974;8.462;2022-11-20T00:16:09;11.33;;;8.60;;
31746;SDS011;18319;48.974;8.462;2022-11-20T00:18:36;9.43;;;7.47;;
31746;SDS011;18319;48.974;8.462;2022-11-20T00:21:04;13.23;;;7.73;;
31746;SDS011;18319;48.974;8.462;2022-11-20T00:23:32;8.98;;;7.72;;
31746;SDS011;18319;48.974;8.462;2022-11-20T00:26:01;10.98;;;8.35;;
31746;SDS011;18319;48.974;8.462;2022-11-20T00:28:28;11.23;;;8.07;;
31746;SDS011;18319;48.974;8.462;2022-11-20T00:30:59;13.43;;;8.25;;
31746;SDS011;18319;48.974;8.462;2022-11-20T00:33:28;8.83;;;7.93;;
31746;SDS011;18319;48.974;8.462;2022-11-20T00:35:58;11.43;;;8.03;;
31746;SDS011;18319;48.974;8.462;2022-11-20T00:38:25;10.70;;;8.37;;
31746;SDS011;18319;48.974;8.462;2022-11-20T00:40:54;11.13;;;7.80;;
31746;SDS011;18319;48.974;8.462;2022-11-20T00:43:21;9.63;;;7.73;;
31746;SDS011;18319;48.974;8.462;2022-11-20T00:45:48;13.33;;;8.80;;
31746;SDS011;18319;48.974;8.462;2022-11-20T00:48:15;11.40;;;8.38;;
31746;SDS011;18319;48.974;8.462;2022-11-20T00:50:44;12.60;;;8.17;;
31746;SDS011;18319;48.974;8.462;2022-11-20T00:53:11;8.57;;;7.70;;
31746;SDS011;18319;48.974;8.462;2022-11-20T00:55:38;13.47;;;9.67;;
31746;SDS011;18319;48.974;8.462;2022-11-20T00:58:06;10.85;;;8.60;;
31746;SDS011;18319;48.974;8.462;2022-11-20T01:00:33;11.82;;;9.50;;
31746;SDS011;18319;48.974;8.462;2022-11-20T01:03:00;12.25;;;9.48;;
31746;SDS011;18319;48.974;8.462;2022-11-20T01:05:27;11.23;;;9.13;;
31746;SDS011;18319;48.974;8.462;2022-11-20T01:07:55;13.57;;;9.35;;
31746;SDS011;18319;48.974;8.462;2022-11-20T01:10:22;9.75;;;8.27;;
31746;SDS011;18319;48.974;8.462;2022-11-20T01:12:49;11.93;;;8.60;;
31746;SDS011;18319;48.974;8.462;2022-11-20T01:15:37;11.67;;;8.53;;
31746;SDS011;18319;48.974;8.462;2022-11-20T01:18:04;10.90;;;8.10;;
31746;SDS011;18319;48.974;8.462;2022-11-20T01:20:33;10.67;;;7.83;;
31746;SDS011;18319;48.974;8.462;2022-11-20T01:23:02;10.83;;;7.33;;
31746;SDS011;18319;48.974;8.462;2022-11-20T01:25:29;10.10;;;7.80;;
31746;SDS011;18319;48.974;8.462;2022-11-20T01:27:56;11.00;;;7.60;;
31746;SDS011;18319;48.974;8.462;2022-11-20T01:30:23;10.50;;;7.88;;
31746;SDS011;18319;48.974;8.462;2022-11-20T01:32:50;9.67;;;7.53;;
31746;SDS011;18319;48.974;8.462;2022-11-20T01:35:17;8.70;;;7.07;;
31746;SDS011;18319;48.974;8.462;2022-11-20T01:37:44;7.77;;;6.43;;
31746;SDS011;18319;48.974;8.462;2022-11-20T01:40:13;9.70;;;7.78;;
31746;SDS011;18319;48.974;8.462;2022-11-20T01:42:43;9.55;;;7.00;;
31746;SDS011;18319;48.974;8.462;2022-11-20T01:45:50;8.95;;;7.07;;
31746;SDS011;18319;48.974;8.462;2022-11-20T01:48:22;7.72;;;7.00;;
31746;SDS011;18319;48.974;8.462;2022-11-20T01:50:50;7.00;;;6.30;;
31746;SDS011;18319;48.974;8.462;2022-11-20T01:53:21;7.05;;;5.82;;
31746;SDS011;18319;48.974;8.462;2022-11-20T01:55:53;6.47;;;5.45;;
31746;SDS011;18319;48.974;8.462;2022-11-20T01:58:22;8.50;;;6.37;;
31746;SDS011;18319;48.974;8.462;2022-11-20T02:00:51;7.22;;;5.68;;
31746;SDS011;18319;48.974;8.462;2022-11-20T02:03:19;6.85;;;6.15;;
31746;SDS011;18319;48.974;8.462;2022-11-20T02:05:47;9.15;;;5.93;;
31746;SDS011;18319;48.974;8.462;2022-11-20T02:08:16;6.00;;;5.43;;
31746;SDS011;18319;48.974;8.462;2022-11-20T02:10:45;8.43;;;7.15;;
31746;SDS011;18319;48.974;8.462;2022-11-20T02:13:14;8.07;;;5.70;;
31746;SDS011;18319;48.974;8.462;2022-11-20T02:15:59;5.25;;;4.75;;
31746;SDS011;18319;48.974;8.462;2022-11-20T02:18:26;5.83;;;5.17;;
31746;SDS011;18319;48.974;8.462;2022-11-20T02:20:54;6.77;;;4.80;;
31746;SDS011;18319;48.974;8.462;2022-11-20T02:23:23;5.33;;;4.83;;
31746;SDS011;18319;48.974;8.462;2022-11-20T02:25:54;4.95;;;4.40;;
31746;SDS011;18319;48.974;8.462;2022-11-20T02:28:22;6.28;;;5.05;;
31746;SDS011;18319;48.974;8.462;2022-11-20T02:30:50;6.05;;;3.95;;
31746;SDS011;18319;48.974;8.462;2022-11-20T02:33:19;6.28;;;4.60;;
31746;SDS011;18319;48.974;8.462;2022-11-20T02:35:47;5.90;;;4.37;;
31746;SDS011;18319;48.974;8.462;2022-11-20T02:38:14;4.57;;;4.23;;
31746;SDS011;18319;48.974;8.462;2022-11-20T02:40:41;4.75;;;4.35;;
31746;SDS011;18319;48.974;8.462;2022-11-20T02:43:10;5.07;;;4.28;;
31746;SDS011;18319;48.974;8.462;2022-11-20T02:45:38;4.85;;;4.45;;
31746;SDS011;18319;48.974;8.462;2022-11-20T02:48:07;4.63;;;4.32;;
31746;SDS011;18319;48.974;8.462;2022-11-20T02:50:36;4.22;;;3.67;;
31746;SDS011;18319;48.974;8.462;2022-11-20T02:53:03;7.15;;;4.57;;
31746;SDS011;18319;48.974;8.462;2022-11-20T02:55:30;6.88;;;4.78;;
31746;SDS011;18319;48.974;8.462;2022-11-20T02:57:57;4.55;;;4.03;;
31746;SDS011;18319;48.974;8.462;2022-11-20T03:00:26;4.53;;;4.15;;
31746;SDS011;18319;48.974;8.462;2022-11-20T03:02:53;4.45;;;4.03;;
31746;SDS011;18319;48.974;8.462;2022-11-20T03:05:20;3.88;;;3.58;;
31746;SDS011;18319;48.974;8.462;2022-11-20T03:07:49;4.20;;;3.90;;
31746;SDS011;18319;48.974;8.462;2022-11-20T03:10:16;5.40;;;3.90;;
31746;SDS011;18319;48.974;8.462;2022-11-20T03:12:45;5.25;;;4.07;;
31746;SDS011;18319;48.974;8.462;2022-11-20T03:15:12;3.77;;;3.47;;
31746;SDS011;18319;48.974;8.462;2022-11-20T03:17:40;3.50;;;3.20;;
31746;SDS011;18319;48.974;8.462;2022-11-20T03:20:08;4.60;;;3.33;;
31746;SDS011;18319;48.974;8.462;2022-11-20T03:22:35;4.35;;;3.10;;
31746;SDS011;18319;48.974;8.462;2022-11-20T03:25:02;4.47;;;3.42;;
31746;SDS011;18319;48.974;8.462;2022-11-20T03:27:31;3.72;;;3.00;;
31746;SDS011;18319;48.974;8.462;2022-11-20T03:29:58;6.43;;;3.22;;
31746;SDS011;18319;48.974;8.462;2022-11-20T03:32:25;3.87;;;3.57;;
31746;SDS011;18319;48.974;8.462;2022-11-20T03:34:54;4.90;;;4.47;;
31746;SDS011;18319;48.974;8.462;2022-11-20T03:37:21;10.52;;;3.35;;
31746;SDS011;18319;48.974;8.462;2022-11-20T03:39:48;3.22;;;2.95;;
31746;SDS011;18319;48.974;8.462;2022-11-20T03:42:15;3.80;;;3.50;;
31746;SDS011;18319;48.974;8.462;2022-11-20T03:44:56;3.85;;;3.47;;
31746;SDS011;18319;48.974;8.462;2022-11-20T03:47:23;4.72;;;4.32;;
31746;SDS011;18319;48.974;8.462;2022-11-20T03:49:51;3.95;;;3.65;;
31746;SDS011;18319;48.974;8.462;2022-11-20T03:52:27;4.90;;;3.30;;
31746;SDS011;18319;48.974;8.462;2022-11-20T03:54:57;3.50;;;3.20;;
31746;SDS011;18319;48.974;8.462;2022-11-20T03:57:24;3.60;;;3.40;;
31746;SDS011;18319;48.974;8.462;2022-11-20T03:59:51;4.90;;;3.53;;
31746;SDS011;18319;48.974;8.462;2022-11-20T04:02:18;4.30;;;3.58;;
31746;SDS011;18319;48.974;8.462;2022-11-20T04:04:45;4.17;;;3.43;;
31746;SDS011;18319;48.974;8.462;2022-11-20T04:07:12;4.55;;;3.58;;
31746;SDS011;18319;48.974;8.462;2022-11-20T04:09:40;5.22;;;3.33;;
31746;SDS011;18319;48.974;8.462;2022-11-20T04:12:08;4.20;;;3.83;;
31746;SDS011;18319;48.974;8.462;2022-11-20T04:14:35;3.70;;;3.40;;
31746;SDS011;18319;48.974;8.462;2022-11-20T04:17:03;4.20;;;3.60;;
31746;SDS011;18319;48.974;8.462;2022-11-20T04:19:30;3.80;;;3.50;;
31746;SDS011;18319;48.974;8.462;2022-11-20T04:21:57;4.00;;;3.70;;
31746;SDS011;18319;48.974;8.462;2022-11-20T04:24:24;4.35;;;3.63;;
31746;SDS011;18319;48.974;8.462;2022-11-20T04:26:52;3.40;;;3.20;;
31746;SDS011;18319;48.974;8.462;2022-11-20T04:29:24;3.70;;;3.50;;
31746;SDS011;18319;48.974;8.462;2022-11-20T04:31:51;3.45;;;3.25;;
31746;SDS011;18319;48.974;8.462;2022-11-20T04:34:18;4.20;;;3.80;;
31746;SDS011;18319;48.974;8.462;2022-11-20T04:36:45;4.05;;;3.15;;
31746;SDS011;18319;48.974;8.462;2022-11-20T04:39:14;3.92;;;3.63;;
31746;SDS011;18319;48.974;8.462;2022-11-20T04:41:42;5.70;;;4.63;;
31746;SDS011;18319;48.974;8.462;2022-11-20T04:44:12;3.90;;;3.60;;
31746;SDS011;18319;48.974;8.462;2022-11-20T04:46:40;4.28;;;3.97;;
31746;SDS011;18319;48.974;8.462;2022-11-20T04:49:08;3.85;;;3.55;;
31746;SDS011;18319;48.974;8.462;2022-11-20T04:51:41;3.92;;;3.00;;
31746;SDS011;18319;48.974;8.462;2022-11-20T04:54:08;3.50;;;3.30;;
31746;SDS011;18319;48.974;8.462;2022-11-20T04:56:35;3.83;;;3.42;;
31746;SDS011;18319;48.974;8.462;2022-11-20T04:59:02;6.45;;;3.28;;
31746;SDS011;18319;48.974;8.462;2022-11-20T05:01:30;4.47;;;3.17;;
31746;SDS011;18319;48.974;8.462;2022-11-20T05:03:57;5.30;;;3.38;;
31746;SDS011;18319;48.974;8.462;2022-11-20T05:06:25;3.95;;;3.42;;
31746;SDS011;18319;48.974;8.462;2022-11-20T05:08:52;3.95;;;3.33;;
31746;SDS011;18319;48.974;8.462;2022-11-20T05:11:19;4.43;;;3.63;;
31746;SDS011;18319;48.974;8.462;2022-11-20T05:13:47;3.30;;;3.10;;
31746;SDS011;18319;48.974;8.462;2022-11-20T05:16:15;3.40;;;3.10;;
31746;SDS011;18319;48.974;8.462;2022-11-20T05:18:43;3.42;;;3.00;;
31746;SDS011;18319;48.974;8.462;2022-11-20T05:21:12;3.15;;;2.80;;
31746;SDS011;18319;48.974;8.462;2022-11-20T05:23:39;3.28;;;3.08;;
31746;SDS011;18319;48.974;8.462;2022-11-20T05:26:07;4.95;;;2.85;;
31746;SDS011;18319;48.974;8.462;2022-11-20T05:28:34;2.83;;;2.63;;
31746;SDS011;18319;48.974;8.462;2022-11-20T05:31:08;3.13;;;2.15;;
31746;SDS011;18319;48.974;8.462;2022-11-20T05:33:36;3.00;;;2.80;;
31746;SDS011;18319;48.974;8.462;2022-11-20T05:36:05;2.80;;;2.60;;
31746;SDS011;18319;48.974;8.462;2022-11-20T05:38:40;3.83;;;2.67;;
31746;SDS011;18319;48.974;8.462;2022-11-20T05:41:08;2.70;;;2.50;;
31746;SDS011;18319;48.974;8.462;2022-11-20T05:43:36;2.47;;;2.28;;
31746;SDS011;18319;48.974;8.462;2022-11-20T05:46:04;2.65;;;2.45;;
31746;SDS011;18319;48.974;8.462;2022-11-20T05:48:31;2.43;;;2.23;;
31746;SDS011;18319;48.974;8.462;2022-11-20T05:50:59;1.98;;;1.88;;
31746;SDS011;18319;48.974;8.462;2022-11-20T05:53:27;2.13;;;1.92;;
31746;SDS011;18319;48.974;8.462;2022-11-20T05:55:58;2.25;;;2.10;;
31746;SDS011;18319;48.974;8.462;2022-11-20T05:58:25;2.47;;;2.15;;
31746;SDS011;18319;48.974;8.462;2022-11-20T06:00:53;2.53;;;1.90;;
31746;SDS011;18319;48.974;8.462;2022-11-20T06:03:20;2.07;;;1.97;;
31746;SDS011;18319;48.974;8.462;2022-11-20T06:05:47;2.47;;;1.70;;
31746;SDS011;18319;48.974;8.462;2022-11-20T06:08:14;2.55;;;2.35;;
31746;SDS011;18319;48.974;8.462;2022-11-20T06:10:43;2.13;;;2.03;;
31746;SDS011;18319;48.974;8.462;2022-11-20T06:13:10;1.88;;;1.65;;
31746;SDS011;18319;48.974;8.462;2022-11-20T06:15:37;2.72;;;1.90;;
31746;SDS011;18319;48.974;8.462;2022-11-20T06:18:04;2.13;;;1.88;;
31746;SDS011;18319;48.974;8.462;2022-11-20T06:20:35;2.08;;;1.88;;
31746;SDS011;18319;48.974;8.462;2022-11-20T06:23:02;2.75;;;2.00;;
31746;SDS011;18319;48.974;8.462;2022-11-20T06:25:29;2.22;;;2.03;;
31746;SDS011;18319;48.974;8.462;2022-11-20T06:28:00;2.05;;;1.80;;
31746;SDS011;18319;48.974;8.462;2022-11-20T06:30:27;1.97;;;1.87;;
31746;SDS011;18319;48.974;8.462;2022-11-20T06:32:54;1.70;;;1.60;;
31746;SDS011;18319;48.974;8.462;2022-11-20T06:35:23;1.88;;;1.77;;
31746;SDS011;18319;48.974;8.462;2022-11-20T06:37:50;2.13;;;1.80;;
31746;SDS011;18319;48.974;8.462;2022-11-20T06:40:17;1.65;;;1.55;;
31746;SDS011;18319;48.974;8.462;2022-11-20T06:42:45;2.17;;;2.03;;
31746;SDS011;18319;48.974;8.462;2022-11-20T06:45:14;2.15;;;1.98;;
31746;SDS011;18319;48.974;8.462;2022-11-20T06:47:41;2.60;;;1.63;;
31746;SDS011;18319;48.974;8.462;2022-11-20T06:50:22;1.55;;;1.45;;
31746;SDS011;18319;48.974;8.462;2022-11-20T06:52:49;1.80;;;1.70;;
31746;SDS011;18319;48.974;8.462;2022-11-20T06:55:17;1.88;;;1.65;;
31746;SDS011;18319;48.974;8.462;2022-11-20T06:57:44;2.73;;;1.70;;
31746;SDS011;18319;48.974;8.462;2022-11-20T07:00:11;2.95;;;1.52;;
31746;SDS011;18319;48.974;8.462;2022-11-20T07:02:41;2.50;;;1.60;;
31746;SDS011;18319;48.974;8.462;2022-11-20T07:05:08;1.60;;;1.50;;
31746;SDS011;18319;48.974;8.462;2022-11-20T07:07:36;3.70;;;1.67;;
31746;SDS011;18319;48.974;8.462;2022-11-20T07:10:03;1.97;;;1.47;;
31746;SDS011;18319;48.974;8.462;2022-11-20T07:12:30;3.03;;;1.80;;
31746;SDS011;18319;48.974;8.462;2022-11-20T07:14:57;4.20;;;1.40;;
31746;SDS011;18319;48.974;8.462;2022-11-20T07:17:24;2.20;;;1.20;;
31746;SDS011;18319;48.974;8.462;2022-11-20T07:19:53;1.70;;;1.30;;
31746;SDS011;18319;48.974;8.462;2022-11-20T07:22:20;2.53;;;1.60;;
31746;SDS011;18319;48.974;8.462;2022-11-20T07:24:47;1.07;;;1.00;;
31746;SDS011;18319;48.974;8.462;2022-11-20T07:27:20;1.30;;;1.20;;
31746;SDS011;18319;48.974;8.462;2022-11-20T07:29:47;2.17;;;1.47;;
31746;SDS011;18319;48.974;8.462;2022-11-20T07:32:14;1.13;;;1.03;;
31746;SDS011;18319;48.974;8.462;2022-11-20T07:34:41;1.42;;;1.33;;
31746;SDS011;18319;48.974;8.462;2022-11-20T07:37:10;3.53;;;0.98;;
31746;SDS011;18319;48.974;8.462;2022-11-20T07:39:37;1.52;;;1.42;;
31746;SDS011;18319;48.974;8.462;2022-11-20T07:42:05;1.60;;;1.50;;
31746;SDS011;18319;48.974;8.462;2022-11-20T07:44:32;1.40;;;1.20;;
31746;SDS011;18319;48.974;8.462;2022-11-20T07:46:59;1.48;;;1.08;;
31746;SDS011;18319;48.974;8.462;2022-11-20T07:49:26;2.00;;;1.23;;
31746;SDS011;18319;48.974;8.462;2022-11-20T07:51:54;1.15;;;1.15;;
31746;SDS011;18319;48.974;8.462;2022-11-20T07:54:22;1.75;;;1.13;;
31746;SDS011;18319;48.974;8.462;2022-11-20T07:56:49;1.92;;;1.63;;
31746;SDS011;18319;48.974;8.462;2022-11-20T07:59:17;1.70;;;1.60;;
31746;SDS011;18319;48.974;8.462;2022-11-20T08:01:44;2.15;;;1.30;;
31746;SDS011;18319;48.974;8.462;2022-11-20T08:04:11;1.60;;;1.50;;
31746;SDS011;18319;48.974;8.462;2022-11-20T08:06:41;1.63;;;1.53;;
31746;SDS011;18319;48.974;8.462;2022-11-20T08:09:08;2.08;;;1.52;;
31746;SDS011;18319;48.974;8.462;2022-11-20T08:11:37;2.00;;;1.80;;
31746;SDS011;18319;48.974;8.462;2022-11-20T08:14:21;1.73;;;1.50;;
31746;SDS011;18319;48.974;8.462;2022-11-20T08:16:49;1.45;;;1.35;;
31746;SDS011;18319;48.974;8.462;2022-11-20T08:19:16;2.75;;;1.50;;
31746;SDS011;18319;48.974;8.462;2022-11-20T08:21:44;1.52;;;1.42;;
31746;SDS011;18319;48.974;8.462;2022-11-20T08:24:11;1.35;;;1.30;;
31746;SDS011;18319;48.974;8.462;2022-11-20T08:26:39;1.92;;;1.70;;
31746;SDS011;18319;48.974;8.462;2022-11-20T08:29:07;2.55;;;1.40;;
31746;SDS011;18319;48.974;8.462;2022-11-20T08:31:34;3.30;;;1.40;;
31746;SDS011;18319;48.974;8.462;2022-11-20T08:34:01;2.90;;;1.50;;
31746;SDS011;18319;48.974;8.462;2022-11-20T08:36:28;1.65;;;1.55;;
31746;SDS011;18319;48.974;8.462;2022-11-20T08:38:55;1.67;;;1.50;;
31746;SDS011;18319;48.974;8.462;2022-11-20T08:41:22;1.55;;;1.45;;
31746;SDS011;18319;48.974;8.462;2022-11-20T08:43:52;1.75;;;1.65;;
31746;SDS011;18319;48.974;8.462;2022-11-20T08:46:19;2.25;;;1.30;;
31746;SDS011;18319;48.974;8.462;2022-11-20T08:48:47;2.30;;;2.20;;
31746;SDS011;18319;48.974;8.462;2022-11-20T08:51:14;2.95;;;2.75;;
31746;SDS011;18319;48.974;8.462;2022-11-20T08:53:41;2.47;;;2.20;;
31746;SDS011;18319;48.974;8.462;2022-11-20T08:56:08;2.28;;;2.08;;
31746;SDS011;18319;48.974;8.462;2022-11-20T08:58:36;2.25;;;2.10;;
31746;SDS011;18319;48.974;8.462;2022-11-20T09:01:04;2.40;;;2.20;;
31746;SDS011;18319;48.974;8.462;2022-11-20T09:03:31;2.20;;;2.10;;
31746;SDS011;18319;48.974;8.462;2022-11-20T09:05:59;2.83;;;2.50;;
31746;SDS011;18319;48.974;8.462;2022-11-20T09:08:26;3.00;;;2.80;;
31746;SDS011;18319;48.974;8.462;2022-11-20T09:10:53;3.22;;;2.38;;
31746;SDS011;18319;48.974;8.462;2022-11-20T09:13:20;3.60;;;3.40;;
31746;SDS011;18319;48.974;8.462;2022-11-20T09:15:51;4.32;;;3.45;;
31746;SDS011;18319;48.974;8.462;2022-11-20T09:18:20;2.70;;;2.50;;
31746;SDS011;18319;48.974;8.462;2022-11-20T09:20:47;2.05;;;1.95;;
31746;SDS011;18319;48.974;8.462;2022-11-20T09:23:15;2.25;;;2.05;;
31746;SDS011;18319;48.974;8.462;2022-11-20T09:25:42;3.63;;;2.70;;
31746;SDS011;18319;48.974;8.462;2022-11-20T09:28:09;2.70;;;2.33;;
31746;SDS011;18319;48.974;8.462;2022-11-20T09:30:36;2.80;;;2.60;;
31746;SDS011;18319;48.974;8.462;2022-11-20T09:33:04;9.88;;;8.95;;
31746;SDS011;18319;48.974;8.462;2022-11-20T09:35:32;4.20;;;3.80;;
31746;SDS011;18319;48.974;8.462;2022-11-20T09:38:03;3.00;;;2.83;;
31746;SDS011;18319;48.974;8.462;2022-11-20T09:40:31;3.40;;;2.83;;
31746;SDS011;18319;48.974;8.462;2022-11-20T09:42:59;3.05;;;2.30;;
31746;SDS011;18319;48.974;8.462;2022-11-20T09:45:30;2.78;;;2.42;;
31746;SDS011;18319;48.974;8.462;2022-11-20T09:48:11;2.70;;;2.50;;
31746;SDS011;18319;48.974;8.462;2022-11-20T09:50:45;4.70;;;3.92;;
31746;SDS011;18319;48.974;8.462;2022-11-20T09:53:16;3.50;;;3.20;;
31746;SDS011;18319;48.974;8.462;2022-11-20T09:55:46;3.30;;;2.80;;
31746;SDS011;18319;48.974;8.462;2022-11-20T09:58:15;4.50;;;3.13;;
31746;SDS011;18319;48.974;8.462;2022-11-20T10:00:43;2.80;;;2.60;;
31746;SDS011;18319;48.974;8.462;2022-11-20T10:03:11;4.43;;;2.40;;
31746;SDS011;18319;48.974;8.462;2022-11-20T10:05:41;3.30;;;2.63;;
31746;SDS011;18319;48.974;8.462;2022-11-20T10:08:13;4.50;;;2.97;;
31746;SDS011;18319;48.974;8.462;2022-11-20T10:10:42;2.90;;;2.60;;
31746;SDS011;18319;48.974;8.462;2022-11-20T10:13:13;3.85;;;2.45;;
31746;SDS011;18319;48.974;8.462;2022-11-20T10:15:46;3.70;;;2.88;;
31746;SDS011;18319;48.974;8.462;2022-11-20T10:18:19;4.53;;;2.70;;
31746;SDS011;18319;48.974;8.462;2022-11-20T10:20:51;4.68;;;3.05;;
31746;SDS011;18319;48.974;8.462;2022-11-20T10:23:28;4.20;;;2.50;;
31746;SDS011;18319;48.974;8.462;2022-11-20T10:25:59;2.67;;;2.47;;
31746;SDS011;18319;48.974;8.462;2022-11-20T10:28:34;3.47;;;2.65;;
31746;SDS011;18319;48.974;8.462;2022-11-20T10:31:08;3.28;;;2.78;;
31746;SDS011;18319;48.974;8.462;2022-11-20T10:33:36;2.45;;;2.35;;
31746;SDS011;18319;48.974;8.462;2022-11-20T10:36:08;2.90;;;2.50;;
31746;SDS011;18319;48.974;8.462;2022-11-20T10:38:42;2.83;;;2.63;;
31746;SDS011;18319;48.974;8.462;2022-11-20T10:41:11;2.47;;;2.28;;
31746;SDS011;18319;48.974;8.462;2022-11-20T10:43:51;3.35;;;3.10;;
31746;SDS011;18319;48.974;8.462;2022-11-20T10:46:20;2.75;;;2.55;;
31746;SDS011;18319;48.974;8.462;2022-11-20T10:48:47;3.28;;;2.90;;
31746;SDS011;18319;48.974;8.462;2022-11-20T10:51:17;3.38;;;2.72;;
31746;SDS011;18319;48.974;8.462;2022-11-20T10:56:33;3.15;;;2.55;;
31746;SDS011;18319;48.974;8.462;2022-11-20T10:59:11;2.75;;;2.55;;
31746;SDS011;18319;48.974;8.462;2022-11-20T11:01:42;3.08;;;2.55;;
31746;SDS011;18319;48.974;8.462;2022-11-20T11:04:15;3.05;;;2.75;;
31746;SDS011;18319;48.974;8.462;2022-11-20T11:06:46;3.17;;;2.63;;
31746;SDS011;18319;48.974;8.462;2022-11-20T11:09:15;4.50;;;2.38;;
31746;SDS011;18319;48.974;8.462;2022-11-20T11:11:44;3.90;;;2.30;;
31746;SDS011;18319;48.974;8.462;2022-11-20T11:14:12;2.45;;;2.05;;
31746;SDS011;18319;48.974;8.462;2022-11-20T11:16:48;2.60;;;2.40;;
31746;SDS011;18319;48.974;8.462;2022-11-20T11:19:16;3.90;;;2.53;;
31746;SDS011;18319;48.974;8.462;2022-11-20T11:21:45;3.95;;;2.05;;
31746;SDS011;18319;48.974;8.462;2022-11-20T11:24:19;4.43;;;2.17;;
31746;SDS011;18319;48.974;8.462;2022-11-20T11:26:52;3.03;;;2.53;;
31746;SDS011;18319;48.974;8.462;2022-11-20T11:29:19;4.38;;;2.83;;
31746;SDS011;18319;48.974;8.462;2022-11-20T11:31:46;3.47;;;2.10;;
31746;SDS011;18319;48.974;8.462;2022-11-20T11:34:14;2.85;;;2.38;;
31746;SDS011;18319;48.974;8.462;2022-11-20T11:36:41;2.35;;;2.20;;
31746;SDS011;18319;48.974;8.462;2022-11-20T11:39:10;2.30;;;2.13;;
31746;SDS011;18319;48.974;8.462;2022-11-20T11:41:38;3.53;;;1.98;;
31746;SDS011;18319;48.974;8.462;2022-11-20T11:44:14;2.10;;;2.00;;
31746;SDS011;18319;48.974;8.462;2022-11-20T11:47:00;2.40;;;1.92;;
31746;SDS011;18319;48.974;8.462;2022-11-20T11:49:27;2.33;;;1.92;;
31746;SDS011;18319;48.974;8.462;2022-11-20T11:51:59;1.92;;;1.70;;
31746;SDS011;18319;48.974;8.462;2022-11-20T11:54:28;2.13;;;2.03;;
31746;SDS011;18319;48.974;8.462;2022-11-20T11:56:58;3.42;;;2.00;;
31746;SDS011;18319;48.974;8.462;2022-11-20T11:59:30;3.10;;;1.60;;
31746;SDS011;18319;48.974;8.462;2022-11-20T12:02:02;2.85;;;1.23;;
31746;SDS011;18319;48.974;8.462;2022-11-20T12:04:37;2.47;;;2.28;;
31746;SDS011;18319;48.974;8.462;2022-11-20T12:07:08;3.38;;;1.60;;
31746;SDS011;18319;48.974;8.462;2022-11-20T12:09:38;1.58;;;1.48;;
31746;SDS011;18319;48.974;8.462;2022-11-20T12:12:08;1.83;;;1.73;;
31746;SDS011;18319;48.974;8.462;2022-11-20T12:14:38;1.60;;;1.30;;
31746;SDS011;18319;48.974;8.462;2022-11-20T12:17:07;6.00;;;1.88;;
31746;SDS011;18319;48.974;8.462;2022-11-20T12:19:35;2.17;;;1.40;;
31746;SDS011;18319;48.974;8.462;2022-11-20T12:22:04;5.63;;;1.23;;
31746;SDS011;18319;48.974;8.462;2022-11-20T12:24:38;2.22;;;1.42;;
31746;SDS011;18319;48.974;8.462;2022-11-20T12:27:14;3.78;;;1.30;;
31746;SDS011;18319;48.974;8.462;2022-11-20T12:29:47;1.88;;;1.33;;
31746;SDS011;18319;48.974;8.462;2022-11-20T12:32:34;2.10;;;1.17;;
31746;SDS011;18319;48.974;8.462;2022-11-20T12:35:04;1.60;;;1.33;;
31746;SDS011;18319;48.974;8.462;2022-11-20T12:37:36;2.72;;;1.25;;
31746;SDS011;18319;48.974;8.462;2022-11-20T12:40:12;2.30;;;1.00;;
31746;SDS011;18319;48.974;8.462;2022-11-20T12:42:45;2.10;;;1.45;;
31746;SDS011;18319;48.974;8.462;2022-11-20T12:45:41;1.58;;;1.27;;
31746;SDS011;18319;48.974;8.462;2022-11-20T12:48:15;2.53;;;1.42;;
31746;SDS011;18319;48.974;8.462;2022-11-20T12:50:48;3.97;;;2.70;;
31746;SDS011;18319;48.974;8.462;2022-11-20T12:53:21;4.25;;;1.60;;
31746;SDS011;18319;48.974;8.462;2022-11-20T12:55:52;1.55;;;1.13;;
31746;SDS011;18319;48.974;8.462;2022-11-20T12:58:23;1.58;;;1.08;;
31746;SDS011;18319;48.974;8.462;2022-11-20T13:00:56;1.95;;;0.52;;
31746;SDS011;18319;48.974;8.462;2022-11-20T13:03:32;1.67;;;0.82;;
31746;SDS011;18319;48.974;8.462;2022-11-20T13:06:03;0.95;;;0.95;;
31746;SDS011;18319;48.974;8.462;2022-11-20T13:08:33;1.77;;;0.85;;
31746;SDS011;18319;48.974;8.462;2022-11-20T13:11:03;1.88;;;0.70;;
31746;SDS011;18319;48.974;8.462;2022-11-20T13:13:35;0.60;;;0.60;;
31746;SDS011;18319;48.974;8.462;2022-11-20T13:16:08;1.17;;;0.85;;
31746;SDS011;18319;48.974;8.462;2022-11-20T13:18:37;2.30;;;0.90;;
31746;SDS011;18319;48.974;8.462;2022-11-20T13:21:13;1.98;;;0.75;;
31746;SDS011;18319;48.974;8.462;2022-11-20T13:23:40;1.65;;;1.30;;
31746;SDS011;18319;48.974;8.462;2022-11-20T13:26:13;2.55;;;0.77;;
31746;SDS011;18319;48.974;8.462;2022-11-20T13:28:41;1.70;;;1.33;;
31746;SDS011;18319;48.974;8.462;2022-11-20T13:31:11;0.80;;;0.80;;
31746;SDS011;18319;48.974;8.462;2022-11-20T13:33:51;0.98;;;0.70;;
31746;SDS011;18319;48.974;8.462;2022-11-20T13:36:20;0.63;;;0.60;;
31746;SDS011;18319;48.974;8.462;2022-11-20T13:38:48;1.23;;;1.10;;
31746;SDS011;18319;48.974;8.462;2022-11-20T13:41:22;1.67;;;0.90;;
31746;SDS011;18319;48.974;8.462;2022-11-20T13:44:04;3.88;;;0.60;;
31746;SDS011;18319;48.974;8.462;2022-11-20T13:46:36;2.28;;;0.73;;
31746;SDS011;18319;48.974;8.462;2022-11-20T13:49:07;1.10;;;0.90;;
31746;SDS011;18319;48.974;8.462;2022-11-20T13:51:37;0.82;;;0.65;;
31746;SDS011;18319;48.974;8.462;2022-11-20T13:54:11;1.33;;;0.75;;
31746;SDS011;18319;48.974;8.462;2022-11-20T13:56:45;0.88;;;0.70;;
31746;SDS011;18319;48.974;8.462;2022-11-20T13:59:18;0.82;;;0.50;;
31746;SDS011;18319;48.974;8.462;2022-11-20T14:01:51;0.93;;;0.80;;
31746;SDS011;18319;48.974;8.462;2022-11-20T14:04:22;1.00;;;0.90;;
31746;SDS011;18319;48.974;8.462;2022-11-20T14:06:52;1.85;;;0.80;;
31746;SDS011;18319;48.974;8.462;2022-11-20T14:09:26;1.70;;;0.88;;
31746;SDS011;18319;48.974;8.462;2022-11-20T14:11:53;1.40;;;0.60;;
31746;SDS011;18319;48.974;8.462;2022-11-20T14:14:24;1.67;;;0.70;;
31746;SDS011;18319;48.974;8.462;2022-11-20T14:17:04;2.45;;;0.60;;
31746;SDS011;18319;48.974;8.462;2022-11-20T14:19:32;3.60;;;0.80;;
31746;SDS011;18319;48.974;8.462;2022-11-20T14:22:07;1.52;;;0.70;;
31746;SDS011;18319;48.974;8.462;2022-11-20T14:24:34;1.48;;;1.38;;
31746;SDS011;18319;48.974;8.462;2022-11-20T14:27:01;1.10;;;0.73;;
31746;SDS011;18319;48.974;8.462;2022-11-20T14:29:29;1.55;;;0.80;;
31746;SDS011;18319;48.974;8.462;2022-11-20T14:32:01;0.60;;;0.60;;
31746;SDS011;18319;48.974;8.462;2022-11-20T14:34:30;0.85;;;0.60;;
31746;SDS011;18319;48.974;8.462;2022-11-20T14:36:59;2.55;;;0.60;;
31746;SDS011;18319;48.974;8.462;2022-11-20T14:39:28;1.63;;;0.70;;
31746;SDS011;18319;48.974;8.462;2022-11-20T14:41:56;2.63;;;0.70;;
31746;SDS011;18319;48.974;8.462;2022-11-20T14:44:24;1.50;;;0.60;;
31746;SDS011;18319;48.974;8.462;2022-11-20T14:46:52;1.58;;;0.68;;
31746;SDS011;18319;48.974;8.462;2022-11-20T14:49:21;1.25;;;1.15;;
31746;SDS011;18319;48.974;8.462;2022-11-20T14:51:57;1.65;;;0.70;;
31746;SDS011;18319;48.974;8.462;2022-11-20T14:54:25;5.55;;;1.48;;
31746;SDS011;18319;48.974;8.462;2022-11-20T14:56:53;0.60;;;0.60;;
31746;SDS011;18319;48.974;8.462;2022-11-20T14:59:22;2.15;;;0.70;;
31746;SDS011;18319;48.974;8.462;2022-11-20T15:01:54;1.27;;;0.65;;